| time (UTC) | temp F | wind direction | speed MPH | gust MPH | rain 1hr in | rain 24hr in | rain mn in | humidity % | barometer mb |
| 20260510231728 | 50 | 130 | 7.0 | 0.0 | 0.00 | 0.00 | 0.00 | 71 | |
| 20260510222030 | 50 | 130 | 9.0 | 0.0 | 0.00 | 0.00 | 0.00 | 71 | |
| 20260510211727 | 50 | 130 | 6.0 | 0.0 | 0.00 | 0.00 | 0.00 | 71 | |
| 20260510201728 | 50 | 150 | 9.0 | 0.0 | 0.00 | 0.00 | 0.00 | 76 | |
| 20260510191828 | 50 | 140 | 7.0 | 0.0 | 0.00 | 0.00 | 0.00 | 76 | |
| 20260510181728 | 54 | 120 | 7.0 | 0.0 | 0.00 | 0.00 | 0.00 | 71 | |
| 20260510171727 | 57 | 120 | 6.0 | 0.0 | 0.00 | 0.00 | 0.00 | 58 | |
| 20260510162032 | 57 | 120 | 7.0 | 0.0 | 0.00 | 0.00 | 0.00 | 62 | |
| 20260510151728 | 57 | 140 | 9.0 | 0.0 | 0.00 | 0.00 | 0.00 | 67 | |
| 20260510141729 | 59 | 120 | 8.0 | 0.0 | 0.00 | 0.00 | 0.00 | 62 | |
| 20260510131829 | 57 | 120 | 12.0 | 0.0 | 0.00 | 0.00 | 0.00 | 62 | |
| 20260510121729 | 57 | 160 | 10.0 | 18.0 | 0.00 | 0.00 | 0.00 | 67 | |
| 20260510111729 | 57 | 140 | 12.0 | 0.0 | 0.00 | 0.00 | 0.00 | 67 | |
| 20260510102031 | 54 | 140 | 13.0 | 0.0 | 0.00 | 0.00 | 0.00 | 71 | |
| 20260510091728 | 54 | 140 | 12.0 | 18.0 | 0.00 | 0.00 | 0.00 | 66 | |
| 20260510081728 | 52 | 140 | 12.0 | 0.0 | 0.00 | 0.00 | 0.00 | 66 | |
| 20260510071829 | 48 | 150 | 13.0 | 0.0 | 0.00 | 0.00 | 0.00 | 76 | |
| 20260510061730 | 46 | 150 | 10.0 | 0.0 | 0.00 | 0.00 | 0.00 | 81 | |
| 20260510051729 | 43 | 140 | 9.0 | 0.0 | 0.00 | 0.00 | 0.00 | 86 | |
| 20260510042031 | 39 | 140 | 10.0 | 0.0 | 0.00 | 0.00 | 0.00 | 93 | |
| 20260510031728 | 39 | 140 | 12.0 | 0.0 | 0.00 | 0.00 | 0.00 | 93 | |
| 20260510021729 | 39 | 140 | 9.0 | 0.0 | 0.00 | 0.00 | 0.00 | 93 | |
| 20260510011929 | 41 | 130 | 9.0 | 0.0 | 0.00 | 0.00 | 0.00 | 86 | |
| 20260510001729 | 41 | 140 | 12.0 | 0.0 | 0.00 | 0.00 | 0.00 | 93 |